createdAt,value
2019-05-09T06:42:08.940Z,4.00
2019-05-09T06:44:49.095Z,4.22
2019-05-09T06:47:21.497Z,6.30
2019-05-09T06:49:52.941Z,6.87
2019-05-09T06:52:23.035Z,6.20
2019-05-09T06:54:52.929Z,5.72
2019-05-09T06:57:22.744Z,6.37
2019-05-09T06:59:52.994Z,7.05
2019-05-09T07:02:28.257Z,6.75
2019-05-09T07:04:59.866Z,6.80
2019-05-09T07:07:37.490Z,5.22
2019-05-09T07:10:08.410Z,5.53
2019-05-09T07:12:38.241Z,7.33
2019-05-09T07:15:08.976Z,6.20
2019-05-09T07:17:38.960Z,6.58
2019-05-09T07:20:08.846Z,8.48
2019-05-09T07:22:48.070Z,8.13
2019-05-09T07:25:32.448Z,7.30
2019-05-09T07:28:02.320Z,7.67
2019-05-09T07:30:49.993Z,6.80
2019-05-09T07:33:21.785Z,5.00
2019-05-09T07:35:51.659Z,5.58
2019-05-09T07:38:31.396Z,7.15
2019-05-09T07:41:01.372Z,4.12
2019-05-09T07:43:32.244Z,7.62
2019-05-09T07:46:08.793Z,4.50
2019-05-09T07:48:39.697Z,11.55
2019-05-09T07:51:09.485Z,8.50
2019-05-09T07:53:39.342Z,8.45
2019-05-09T07:56:09.125Z,4.90
2019-05-09T07:58:38.929Z,5.33
2019-05-09T08:01:08.874Z,12.45
2019-05-09T08:03:38.816Z,8.48
2019-05-09T08:06:09.005Z,10.23
2019-05-09T08:08:38.984Z,11.10
2019-05-09T08:11:09.103Z,9.08
2019-05-09T08:13:39.684Z,6.42
2019-05-09T08:16:13.984Z,9.00
2019-05-09T08:18:42.017Z,7.00
2019-05-09T08:21:11.812Z,9.08
2019-05-09T08:23:41.604Z,8.80
2019-05-09T08:26:11.401Z,6.03
2019-05-09T08:28:41.294Z,10.35
2019-05-09T08:31:11.168Z,11.60
2019-05-09T08:33:41.273Z,10.13
2019-05-09T08:36:11.141Z,8.58
2019-05-09T08:38:41.088Z,11.25
2019-05-09T08:41:12.297Z,14.43
2019-05-09T08:43:42.365Z,14.07
2019-05-09T08:46:12.510Z,12.82
2019-05-09T08:48:42.419Z,9.30
2019-05-09T08:51:13.931Z,16.15
2019-05-09T08:53:43.741Z,13.60
2019-05-09T08:56:13.575Z,12.28
2019-05-09T08:58:44.436Z,13.30
2019-05-09T09:01:14.419Z,10.98
2019-05-09T09:03:44.286Z,7.10
2019-05-09T09:06:14.154Z,12.00
2019-05-09T09:08:44.348Z,7.05
2019-05-09T09:11:14.156Z,10.65
2019-05-09T09:13:43.960Z,7.55
2019-05-09T09:16:18.802Z,6.70
2019-05-09T09:18:47.855Z,5.35
2019-05-09T09:21:18.303Z,14.85
2019-05-09T09:23:50.835Z,11.12
2019-05-09T09:26:19.568Z,4.87
2019-05-09T09:28:49.370Z,8.93
2019-05-09T09:31:19.186Z,2.65
2019-05-09T09:33:48.982Z,6.53
2019-05-09T09:36:18.945Z,3.70
2019-05-09T09:38:48.750Z,6.78
2019-05-09T09:41:18.550Z,6.70
2019-05-09T09:43:48.460Z,4.62
2019-05-09T09:46:18.432Z,7.50
2019-05-09T09:48:48.393Z,7.20
2019-05-09T09:51:19.801Z,3.85
2019-05-09T09:53:49.634Z,7.35
2019-05-09T09:56:22.297Z,3.60
2019-05-09T09:58:58.741Z,1.30
2019-05-09T10:01:44.816Z,1.70
2019-05-09T10:04:23.529Z,2.10
2019-05-09T10:06:48.662Z,4.78
2019-05-09T10:09:19.686Z,2.72
2019-05-09T10:11:49.476Z,5.65
2019-05-09T10:14:37.113Z,2.20
2019-05-09T10:17:10.375Z,2.47
2019-05-09T10:19:48.021Z,1.62
2019-05-09T10:22:23.833Z,5.62
2019-05-09T10:24:49.773Z,2.20
2019-05-09T10:27:19.586Z,1.60
2019-05-09T10:29:49.431Z,2.85
2019-05-09T10:32:19.174Z,6.58
2019-05-09T10:34:49.221Z,2.52
2019-05-09T10:37:21.822Z,4.85
2019-05-09T10:39:52.757Z,2.77
2019-05-09T10:42:30.257Z,2.85
2019-05-09T10:45:04.677Z,1.25
2019-05-09T10:47:37.297Z,3.00
2019-05-09T10:50:08.617Z,0.60
2019-05-09T10:52:38.561Z,1.25
2019-05-09T10:55:09.259Z,1.05
2019-05-09T10:57:42.597Z,1.75
2019-05-09T11:00:11.275Z,5.30
2019-05-09T11:02:41.077Z,2.30
2019-05-09T11:05:11.261Z,1.42
2019-05-09T11:07:41.133Z,2.55
2019-05-09T11:10:24.542Z,2.10
2019-05-09T11:12:42.369Z,1.40
2019-05-09T11:15:12.165Z,2.50
2019-05-09T11:17:41.982Z,4.22
2019-05-09T11:20:11.786Z,3.87
2019-05-09T11:22:42.161Z,3.72
2019-05-09T11:25:12.418Z,1.45
2019-05-09T11:27:42.352Z,4.40
2019-05-09T11:30:12.118Z,1.17
2019-05-09T11:32:41.914Z,1.65
2019-05-09T11:35:11.717Z,3.15
2019-05-09T11:37:41.567Z,2.12
2019-05-09T11:40:11.732Z,8.33
2019-05-09T11:42:41.530Z,3.72
2019-05-09T11:45:11.413Z,2.62
2019-05-09T11:47:46.206Z,2.27
2019-05-09T11:50:12.676Z,4.60
2019-05-09T11:52:42.597Z,4.40
2019-05-09T11:55:28.776Z,1.85
2019-05-09T11:57:43.898Z,2.50
2019-05-09T12:00:13.887Z,4.67
2019-05-09T12:02:43.717Z,6.90
2019-05-09T12:05:13.825Z,7.80
2019-05-09T12:07:43.698Z,3.55
2019-05-09T12:10:13.502Z,3.15
2019-05-09T12:12:43.364Z,3.83
2019-05-09T12:15:13.165Z,3.35
2019-05-09T12:17:56.621Z,5.35
2019-05-09T12:20:15.348Z,3.47
2019-05-09T12:22:45.288Z,3.10
2019-05-09T12:25:15.121Z,5.22
2019-05-09T12:27:44.980Z,3.37
2019-05-09T12:30:14.801Z,1.82
2019-05-09T12:32:44.934Z,2.72
2019-05-09T12:35:14.740Z,3.65
2019-05-09T12:37:44.637Z,5.60
2019-05-09T12:40:14.595Z,2.50
2019-05-09T12:42:44.358Z,2.55
2019-05-09T12:45:14.157Z,4.58
2019-05-09T12:47:43.957Z,4.47
2019-05-09T12:50:14.032Z,2.60
2019-05-09T12:52:44.018Z,1.67
2019-05-09T12:55:13.913Z,2.25
2019-05-09T12:57:44.733Z,3.35
2019-05-09T13:00:14.525Z,3.83
2019-05-09T13:02:44.393Z,3.55
2019-05-09T13:05:14.193Z,1.95
2019-05-09T13:07:43.999Z,2.75
2019-05-09T13:10:13.928Z,1.95
2019-05-09T13:12:44.603Z,3.50
2019-05-09T13:15:14.433Z,1.95
2019-05-09T13:17:47.993Z,1.90
2019-05-09T13:20:18.173Z,2.90
2019-05-09T13:22:48.022Z,2.00
2019-05-09T13:25:18.771Z,2.50
2019-05-09T13:27:52.756Z,4.47
2019-05-09T13:30:21.425Z,4.08
2019-05-09T13:32:51.238Z,4.30
2019-05-09T13:35:21.410Z,4.72
2019-05-09T13:37:51.208Z,2.47
2019-05-09T13:40:22.149Z,3.17
2019-05-09T13:42:52.387Z,3.80
2019-05-09T13:45:22.196Z,3.92
2019-05-09T13:47:52.060Z,4.40
2019-05-09T13:50:21.865Z,2.47
2019-05-09T13:52:51.728Z,2.20
2019-05-09T13:55:21.533Z,2.75
2019-05-09T13:57:51.669Z,3.12
2019-05-09T14:00:21.601Z,4.83
2019-05-09T14:02:51.433Z,3.52
2019-05-09T14:05:21.280Z,1.90
2019-05-09T14:07:55.295Z,1.70
2019-05-09T14:10:23.480Z,2.87
2019-05-09T14:13:05.661Z,2.98
2019-05-09T14:15:27.497Z,2.62
2019-05-09T14:17:58.259Z,1.42
2019-05-09T14:20:29.227Z,3.00
2019-05-09T14:22:59.225Z,5.67
2019-05-09T14:25:29.330Z,3.30
2019-05-09T14:27:59.565Z,2.42
2019-05-09T14:30:29.352Z,3.37
2019-05-09T14:33:00.327Z,3.40
2019-05-09T14:35:30.385Z,5.55
2019-05-09T14:38:00.185Z,4.25
2019-05-09T14:40:30.353Z,2.25
2019-05-09T14:43:00.149Z,5.87
2019-05-09T14:45:30.025Z,2.25
2019-05-09T14:47:59.820Z,2.90
2019-05-09T14:50:29.626Z,3.80
2019-05-09T14:52:59.635Z,3.60
2019-05-09T14:55:29.857Z,2.55
2019-05-09T14:57:59.656Z,3.40
2019-05-09T15:00:29.653Z,3.15
2019-05-09T15:02:59.465Z,6.22
2019-05-09T15:05:29.272Z,3.98
2019-05-09T15:07:59.566Z,3.62
2019-05-09T15:10:29.360Z,4.37
2019-05-09T15:13:00.237Z,6.17
2019-05-09T15:15:32.650Z,5.95
2019-05-09T15:18:01.542Z,4.40
2019-05-09T15:20:31.354Z,3.83
2019-05-09T15:23:01.212Z,6.45
2019-05-09T15:25:31.288Z,5.47
2019-05-09T15:28:01.203Z,5.53
2019-05-09T15:30:30.981Z,7.97
2019-05-09T15:33:00.782Z,9.43
2019-05-09T15:35:30.592Z,5.85
2019-05-09T15:38:00.456Z,6.80
2019-05-09T15:40:30.561Z,9.15
2019-05-09T15:43:00.367Z,7.70
2019-05-09T15:45:31.928Z,8.63
2019-05-09T15:48:02.166Z,7.15
2019-05-09T15:50:31.924Z,7.95
2019-05-09T15:53:01.725Z,8.05
2019-05-09T15:55:31.530Z,8.88
2019-05-09T15:58:01.334Z,7.53
2019-05-09T16:00:32.455Z,8.98
2019-05-09T16:03:02.440Z,10.28
2019-05-09T16:05:32.305Z,8.88
2019-05-09T16:08:02.177Z,10.60
2019-05-09T16:10:32.081Z,12.75
2019-05-09T16:13:14.837Z,10.00
2019-05-09T16:15:44.718Z,9.40
2019-05-09T16:18:14.526Z,11.73
2019-05-09T16:20:44.439Z,8.73
2019-05-09T16:23:14.308Z,11.35
2019-05-09T16:25:44.116Z,11.53
2019-05-09T16:28:13.920Z,11.00
2019-05-09T16:30:43.748Z,9.10
2019-05-09T16:33:13.549Z,9.43
2019-05-09T16:35:43.485Z,10.40
2019-05-09T16:38:13.284Z,8.75
2019-05-09T16:40:43.138Z,8.65
2019-05-09T16:43:13.913Z,12.53
2019-05-09T16:45:47.519Z,8.65
2019-05-09T16:48:18.529Z,7.60
2019-05-09T16:51:00.660Z,6.50
2019-05-09T16:53:20.709Z,8.75
2019-05-09T16:55:50.652Z,7.90
2019-05-09T16:58:20.449Z,6.72
2019-05-09T17:00:54.062Z,7.17
2019-05-09T17:03:23.839Z,8.25
2019-05-09T17:05:53.687Z,6.95
2019-05-09T17:08:23.569Z,8.15
2019-05-09T17:10:54.334Z,7.78
2019-05-09T17:13:24.446Z,10.78
2019-05-09T17:15:54.258Z,8.45
2019-05-09T17:18:24.149Z,8.63
2019-05-09T17:21:18.330Z,9.83
2019-05-09T17:23:42.348Z,7.42
2019-05-09T17:26:12.149Z,7.58
2019-05-09T17:28:41.944Z,8.98
2019-05-09T17:31:11.816Z,9.95
2019-05-09T17:33:41.613Z,8.80
2019-05-09T17:36:11.474Z,8.03
2019-05-09T17:38:41.275Z,8.90
2019-05-09T17:41:11.082Z,9.68
2019-05-09T17:43:41.009Z,11.95
2019-05-09T17:46:10.819Z,12.30
2019-05-09T17:48:40.629Z,9.53
2019-05-09T17:51:10.437Z,12.40
2019-05-09T17:53:40.268Z,9.93
2019-05-09T17:56:10.944Z,13.15
2019-05-09T17:58:40.888Z,10.08
2019-05-09T18:01:10.724Z,8.25
2019-05-09T18:03:40.589Z,11.75
2019-05-09T18:06:10.401Z,7.87
2019-05-09T18:08:40.268Z,11.03
2019-05-09T18:18:39.032Z,8.30
2019-05-09T19:10:56.494Z,9.20
2019-05-09T19:13:26.377Z,9.68
2019-05-09T19:16:00.372Z,10.60
2019-05-09T19:18:31.824Z,10.43
2019-05-09T19:21:09.224Z,9.80
2019-05-09T19:23:39.022Z,9.10
2019-05-09T19:26:10.816Z,10.63
2019-05-09T19:32:22.644Z,12.20
2019-05-09T19:34:52.559Z,13.15
2019-05-09T19:37:23.601Z,17.65
2019-05-09T19:39:53.618Z,10.98
2019-05-09T19:42:23.532Z,14.30
2019-05-09T19:44:53.448Z,12.28
2019-05-09T19:47:23.466Z,16.37
2019-05-09T19:49:53.379Z,15.50
2019-05-09T19:52:37.435Z,15.20
2019-05-09T19:54:55.872Z,14.05
2019-05-09T19:57:25.786Z,13.60
2019-05-09T19:59:55.645Z,13.30
2019-05-09T20:02:25.616Z,16.37
2019-05-09T20:04:55.632Z,17.85
2019-05-09T20:07:27.903Z,16.32
2019-05-09T20:10:02.545Z,17.00
2019-05-09T20:12:41.762Z,14.75
2019-05-09T20:15:13.315Z,21.80
2019-05-09T20:17:43.229Z,16.55
2019-05-09T20:20:15.097Z,14.03
2019-05-09T20:22:52.424Z,19.42
2019-05-09T20:25:17.480Z,16.73
2019-05-09T20:27:47.804Z,16.00
2019-05-09T20:30:17.719Z,15.38
2019-05-09T20:32:47.864Z,16.57
2019-05-09T20:35:17.991Z,17.80
2019-05-09T20:37:48.077Z,16.20
2019-05-09T20:40:18.197Z,13.98
2019-05-09T20:42:48.318Z,12.70
2019-05-09T20:45:18.436Z,14.23
2019-05-09T20:47:48.559Z,15.43
2019-05-09T20:50:18.982Z,13.50
2019-05-09T20:52:49.105Z,14.90
2019-05-09T20:55:19.221Z,15.15
2019-05-09T20:57:51.939Z,17.85
2019-05-09T21:00:21.099Z,17.10
2019-05-09T21:02:51.122Z,14.38
2019-05-09T21:05:21.235Z,18.70
2019-05-09T21:07:51.360Z,14.95
2019-05-09T21:10:21.577Z,16.77
2019-05-09T21:12:51.799Z,14.63
2019-05-09T21:15:21.919Z,15.63
2019-05-09T21:17:52.450Z,12.93
2019-05-09T21:20:22.656Z,14.38
2019-05-09T21:22:53.922Z,18.27
2019-05-09T21:25:24.446Z,19.70
2019-05-09T21:27:54.569Z,16.50
2019-05-09T21:30:24.595Z,17.73
2019-05-09T21:32:54.702Z,18.70
2019-05-09T21:35:24.721Z,15.53
2019-05-09T21:37:55.148Z,14.87
2019-05-09T21:40:25.166Z,17.67
2019-05-09T21:42:55.184Z,15.35
2019-05-09T21:45:25.097Z,14.58
2019-05-09T21:47:55.215Z,16.93
2019-05-09T21:50:25.439Z,16.25
2019-05-09T21:52:55.455Z,17.77
2019-05-09T21:55:25.481Z,16.35
2019-05-09T21:57:55.386Z,17.27
2019-05-09T22:00:32.166Z,13.40
2019-05-09T22:03:02.286Z,15.93
2019-05-09T22:05:32.298Z,15.65
2019-05-09T22:08:02.445Z,18.57
2019-05-09T22:10:32.434Z,15.10
2019-05-09T22:13:02.354Z,15.75
2019-05-09T22:15:32.271Z,15.05
2019-05-09T22:18:02.281Z,12.80
2019-05-09T22:20:32.298Z,13.98
2019-05-09T22:23:02.213Z,17.02
2019-05-09T22:25:32.128Z,18.67
2019-05-09T22:28:02.043Z,14.18
2019-05-09T22:30:31.882Z,13.90
2019-05-09T22:33:03.815Z,11.18
2019-05-09T22:35:33.425Z,16.97
2019-05-09T22:38:03.340Z,17.85
2019-05-09T22:40:33.255Z,17.77
2019-05-09T22:43:03.579Z,17.10
2019-05-09T22:45:34.313Z,15.50
2019-05-09T22:48:04.229Z,15.25
2019-05-09T22:50:34.142Z,14.63
2019-05-09T22:53:04.058Z,16.27
2019-05-09T22:55:34.075Z,16.48
2019-05-09T22:58:04.041Z,17.35
2019-05-09T23:00:34.006Z,15.83
2019-05-09T23:03:04.129Z,14.65
2019-05-09T23:05:35.166Z,14.78
2019-05-09T23:08:05.086Z,10.72
2019-05-09T23:10:34.997Z,15.90
2019-05-09T23:13:04.922Z,14.18
2019-05-09T23:15:36.465Z,16.55
2019-05-09T23:18:06.380Z,11.70
2019-05-09T23:20:44.083Z,12.23
2019-05-09T23:23:21.671Z,13.43
2019-05-09T23:25:51.793Z,15.20
2019-05-09T23:28:21.705Z,12.37
2019-05-09T23:30:53.259Z,16.15
2019-05-09T23:33:24.610Z,13.93
2019-05-09T23:35:54.537Z,15.20
2019-05-09T23:38:24.539Z,16.50
2019-05-09T23:40:54.453Z,15.13
2019-05-09T23:43:24.368Z,13.68
2019-05-09T23:45:54.283Z,12.53
2019-05-09T23:48:24.199Z,13.60
2019-05-09T23:50:54.112Z,13.20
2019-05-09T23:56:20.156Z,14.33
2019-05-09T23:59:08.299Z,12.55
